sensor_id;sensor_type;location;lat;lon;timestamp;P1;durP1;ratioP1;P2;durP2;ratioP2
15831;SDS011;8016;49.928;9.372;2023-06-19T00:00:26;6.83;;;6.23;;
15831;SDS011;8016;49.928;9.372;2023-06-19T00:02:55;6.23;;;5.73;;
15831;SDS011;8016;49.928;9.372;2023-06-19T00:05:21;6.83;;;6.30;;
15831;SDS011;8016;49.928;9.372;2023-06-19T00:07:48;6.53;;;5.93;;
15831;SDS011;8016;49.928;9.372;2023-06-19T00:10:14;6.43;;;5.87;;
15831;SDS011;8016;49.928;9.372;2023-06-19T00:12:40;6.23;;;5.57;;
15831;SDS011;8016;49.928;9.372;2023-06-19T00:15:06;5.97;;;5.47;;
15831;SDS011;8016;49.928;9.372;2023-06-19T00:17:34;6.67;;;6.17;;
15831;SDS011;8016;49.928;9.372;2023-06-19T00:20:02;7.10;;;6.50;;
15831;SDS011;8016;49.928;9.372;2023-06-19T00:22:28;6.57;;;6.07;;
15831;SDS011;8016;49.928;9.372;2023-06-19T00:24:54;7.10;;;6.50;;
15831;SDS011;8016;49.928;9.372;2023-06-19T00:27:20;6.27;;;5.77;;
15831;SDS011;8016;49.928;9.372;2023-06-19T00:29:46;6.73;;;5.97;;
15831;SDS011;8016;49.928;9.372;2023-06-19T00:32:12;6.70;;;6.10;;
15831;SDS011;8016;49.928;9.372;2023-06-19T00:34:38;6.57;;;5.97;;
15831;SDS011;8016;49.928;9.372;2023-06-19T00:37:04;6.27;;;5.47;;
15831;SDS011;8016;49.928;9.372;2023-06-19T00:39:30;7.13;;;5.77;;
15831;SDS011;8016;49.928;9.372;2023-06-19T00:41:56;6.67;;;6.07;;
15831;SDS011;8016;49.928;9.372;2023-06-19T00:44:22;7.53;;;6.23;;
15831;SDS011;8016;49.928;9.372;2023-06-19T00:46:51;6.80;;;6.20;;
15831;SDS011;8016;49.928;9.372;2023-06-19T00:49:17;6.30;;;5.73;;
15831;SDS011;8016;49.928;9.372;2023-06-19T00:51:43;6.00;;;5.50;;
15831;SDS011;8016;49.928;9.372;2023-06-19T00:54:09;7.83;;;5.63;;
15831;SDS011;8016;49.928;9.372;2023-06-19T00:56:36;6.17;;;5.67;;
15831;SDS011;8016;49.928;9.372;2023-06-19T00:59:06;7.70;;;6.93;;
15831;SDS011;8016;49.928;9.372;2023-06-19T01:01:33;5.80;;;5.40;;
15831;SDS011;8016;49.928;9.372;2023-06-19T01:03:59;6.67;;;6.00;;
15831;SDS011;8016;49.928;9.372;2023-06-19T01:06:27;6.40;;;5.70;;
15831;SDS011;8016;49.928;9.372;2023-06-19T01:09:04;6.23;;;5.73;;
15831;SDS011;8016;49.928;9.372;2023-06-19T01:11:32;7.03;;;6.43;;
15831;SDS011;8016;49.928;9.372;2023-06-19T01:14:00;6.43;;;5.93;;
15831;SDS011;8016;49.928;9.372;2023-06-19T01:16:29;7.50;;;6.70;;
15831;SDS011;8016;49.928;9.372;2023-06-19T01:18:55;7.13;;;6.53;;
15831;SDS011;8016;49.928;9.372;2023-06-19T01:21:21;7.83;;;6.10;;
15831;SDS011;8016;49.928;9.372;2023-06-19T01:23:47;9.27;;;6.37;;
15831;SDS011;8016;49.928;9.372;2023-06-19T01:26:15;7.10;;;6.40;;
15831;SDS011;8016;49.928;9.372;2023-06-19T01:28:41;6.93;;;6.33;;
15831;SDS011;8016;49.928;9.372;2023-06-19T01:33:56;7.00;;;6.43;;
15831;SDS011;8016;49.928;9.372;2023-06-19T01:36:23;7.00;;;6.40;;
15831;SDS011;8016;49.928;9.372;2023-06-19T01:38:49;6.77;;;6.17;;
15831;SDS011;8016;49.928;9.372;2023-06-19T01:41:16;6.53;;;6.03;;
15831;SDS011;8016;49.928;9.372;2023-06-19T01:43:42;6.60;;;6.00;;
15831;SDS011;8016;49.928;9.372;2023-06-19T01:46:08;6.67;;;5.87;;
15831;SDS011;8016;49.928;9.372;2023-06-19T01:48:35;8.27;;;5.93;;
15831;SDS011;8016;49.928;9.372;2023-06-19T01:51:01;6.83;;;6.23;;
15831;SDS011;8016;49.928;9.372;2023-06-19T01:53:29;7.07;;;6.37;;
15831;SDS011;8016;49.928;9.372;2023-06-19T01:55:56;7.43;;;6.80;;
15831;SDS011;8016;49.928;9.372;2023-06-19T01:58:22;7.23;;;6.67;;
15831;SDS011;8016;49.928;9.372;2023-06-19T02:00:48;7.53;;;6.40;;
15831;SDS011;8016;49.928;9.372;2023-06-19T02:03:14;6.87;;;6.27;;
15831;SDS011;8016;49.928;9.372;2023-06-19T02:05:40;7.83;;;7.13;;
15831;SDS011;8016;49.928;9.372;2023-06-19T02:08:06;7.93;;;6.80;;
15831;SDS011;8016;49.928;9.372;2023-06-19T02:10:32;7.37;;;6.50;;
15831;SDS011;8016;49.928;9.372;2023-06-19T02:12:58;8.03;;;6.37;;
15831;SDS011;8016;49.928;9.372;2023-06-19T02:15:24;7.93;;;7.23;;
15831;SDS011;8016;49.928;9.372;2023-06-19T02:17:50;6.83;;;6.10;;
15831;SDS011;8016;49.928;9.372;2023-06-19T02:20:20;7.47;;;6.77;;
15831;SDS011;8016;49.928;9.372;2023-06-19T02:22:46;8.17;;;7.37;;
15831;SDS011;8016;49.928;9.372;2023-06-19T02:25:12;7.63;;;6.93;;
15831;SDS011;8016;49.928;9.372;2023-06-19T02:27:38;7.10;;;6.50;;
15831;SDS011;8016;49.928;9.372;2023-06-19T02:30:04;7.07;;;6.47;;
15831;SDS011;8016;49.928;9.372;2023-06-19T02:32:30;7.93;;;7.13;;
15831;SDS011;8016;49.928;9.372;2023-06-19T02:34:57;7.20;;;6.40;;
15831;SDS011;8016;49.928;9.372;2023-06-19T02:37:23;7.63;;;6.93;;
15831;SDS011;8016;49.928;9.372;2023-06-19T02:39:49;7.40;;;6.80;;
15831;SDS011;8016;49.928;9.372;2023-06-19T02:42:15;7.60;;;6.90;;
15831;SDS011;8016;49.928;9.372;2023-06-19T02:44:41;7.17;;;6.57;;
15831;SDS011;8016;49.928;9.372;2023-06-19T02:47:08;8.17;;;7.40;;
15831;SDS011;8016;49.928;9.372;2023-06-19T02:49:34;6.97;;;6.37;;
15831;SDS011;8016;49.928;9.372;2023-06-19T02:52:00;7.47;;;6.77;;
15831;SDS011;8016;49.928;9.372;2023-06-19T02:54:26;7.93;;;7.23;;
15831;SDS011;8016;49.928;9.372;2023-06-19T02:56:52;8.10;;;7.30;;
15831;SDS011;8016;49.928;9.372;2023-06-19T02:59:18;8.60;;;7.23;;
15831;SDS011;8016;49.928;9.372;2023-06-19T03:01:44;8.10;;;7.33;;
15831;SDS011;8016;49.928;9.372;2023-06-19T03:04:10;7.30;;;6.60;;
15831;SDS011;8016;49.928;9.372;2023-06-19T03:06:35;8.37;;;6.70;;
15831;SDS011;8016;49.928;9.372;2023-06-19T03:09:05;10.53;;;7.23;;
15831;SDS011;8016;49.928;9.372;2023-06-19T03:11:36;7.80;;;6.63;;
15831;SDS011;8016;49.928;9.372;2023-06-19T03:14:02;15.47;;;7.53;;
15831;SDS011;8016;49.928;9.372;2023-06-19T03:16:32;7.43;;;6.73;;
15831;SDS011;8016;49.928;9.372;2023-06-19T03:18:58;8.43;;;7.63;;
15831;SDS011;8016;49.928;9.372;2023-06-19T03:21:24;8.27;;;7.47;;
15831;SDS011;8016;49.928;9.372;2023-06-19T03:23:50;9.63;;;7.77;;
15831;SDS011;8016;49.928;9.372;2023-06-19T03:26:16;8.93;;;8.13;;
15831;SDS011;8016;49.928;9.372;2023-06-19T03:28:42;8.40;;;7.40;;
15831;SDS011;8016;49.928;9.372;2023-06-19T03:31:07;8.73;;;7.90;;
15831;SDS011;8016;49.928;9.372;2023-06-19T03:33:33;7.97;;;7.10;;
15831;SDS011;8016;49.928;9.372;2023-06-19T03:35:59;7.37;;;6.67;;
15831;SDS011;8016;49.928;9.372;2023-06-19T03:38:25;7.27;;;6.67;;
15831;SDS011;8016;49.928;9.372;2023-06-19T03:40:51;7.90;;;7.20;;
15831;SDS011;8016;49.928;9.372;2023-06-19T03:43:17;8.10;;;7.40;;
15831;SDS011;8016;49.928;9.372;2023-06-19T03:45:43;8.57;;;7.83;;
15831;SDS011;8016;49.928;9.372;2023-06-19T03:48:09;8.53;;;7.30;;
15831;SDS011;8016;49.928;9.372;2023-06-19T03:50:35;9.10;;;8.20;;
15831;SDS011;8016;49.928;9.372;2023-06-19T03:53:01;7.50;;;6.80;;
15831;SDS011;8016;49.928;9.372;2023-06-19T03:55:27;7.90;;;7.20;;
15831;SDS011;8016;49.928;9.372;2023-06-19T03:57:53;8.40;;;7.30;;
15831;SDS011;8016;49.928;9.372;2023-06-19T04:00:19;7.97;;;7.27;;
15831;SDS011;8016;49.928;9.372;2023-06-19T04:02:46;9.03;;;8.13;;
15831;SDS011;8016;49.928;9.372;2023-06-19T04:05:13;8.13;;;7.33;;
15831;SDS011;8016;49.928;9.372;2023-06-19T04:07:39;9.23;;;7.23;;
15831;SDS011;8016;49.928;9.372;2023-06-19T04:10:05;8.40;;;7.60;;
15831;SDS011;8016;49.928;9.372;2023-06-19T04:12:31;8.53;;;7.70;;
15831;SDS011;8016;49.928;9.372;2023-06-19T04:14:57;8.60;;;7.17;;
15831;SDS011;8016;49.928;9.372;2023-06-19T04:17:23;7.67;;;7.07;;
15831;SDS011;8016;49.928;9.372;2023-06-19T04:19:49;8.00;;;7.30;;
15831;SDS011;8016;49.928;9.372;2023-06-19T04:22:15;8.47;;;7.70;;
15831;SDS011;8016;49.928;9.372;2023-06-19T04:24:40;7.60;;;6.90;;
15831;SDS011;8016;49.928;9.372;2023-06-19T04:27:06;8.53;;;7.70;;
15831;SDS011;8016;49.928;9.372;2023-06-19T04:29:33;9.57;;;7.73;;
15831;SDS011;8016;49.928;9.372;2023-06-19T04:31:59;7.60;;;6.90;;
15831;SDS011;8016;49.928;9.372;2023-06-19T04:34:28;8.00;;;7.27;;
15831;SDS011;8016;49.928;9.372;2023-06-19T04:36:54;8.03;;;7.33;;
15831;SDS011;8016;49.928;9.372;2023-06-19T04:39:23;7.70;;;7.00;;
15831;SDS011;8016;49.928;9.372;2023-06-19T04:41:49;9.03;;;7.20;;
15831;SDS011;8016;49.928;9.372;2023-06-19T04:44:15;8.73;;;7.13;;
15831;SDS011;8016;49.928;9.372;2023-06-19T04:46:42;7.97;;;7.17;;
15831;SDS011;8016;49.928;9.372;2023-06-19T04:49:11;7.57;;;6.97;;
15831;SDS011;8016;49.928;9.372;2023-06-19T04:51:38;8.27;;;7.47;;
15831;SDS011;8016;49.928;9.372;2023-06-19T04:54:04;8.00;;;7.20;;
15831;SDS011;8016;49.928;9.372;2023-06-19T04:56:30;7.87;;;7.17;;
15831;SDS011;8016;49.928;9.372;2023-06-19T04:58:57;7.57;;;6.80;;
15831;SDS011;8016;49.928;9.372;2023-06-19T05:01:25;7.57;;;6.90;;
15831;SDS011;8016;49.928;9.372;2023-06-19T05:03:53;8.37;;;6.93;;
15831;SDS011;8016;49.928;9.372;2023-06-19T05:06:20;9.03;;;7.27;;
15831;SDS011;8016;49.928;9.372;2023-06-19T05:08:46;8.07;;;7.27;;
15831;SDS011;8016;49.928;9.372;2023-06-19T05:11:12;7.60;;;6.20;;
15831;SDS011;8016;49.928;9.372;2023-06-19T05:13:38;7.67;;;5.50;;
15831;SDS011;8016;49.928;9.372;2023-06-19T05:16:04;6.40;;;5.77;;
15831;SDS011;8016;49.928;9.372;2023-06-19T05:18:30;6.83;;;5.33;;
15831;SDS011;8016;49.928;9.372;2023-06-19T05:20:56;8.43;;;5.77;;
15831;SDS011;8016;49.928;9.372;2023-06-19T05:23:22;5.30;;;4.90;;
15831;SDS011;8016;49.928;9.372;2023-06-19T05:25:48;6.17;;;5.60;;
15831;SDS011;8016;49.928;9.372;2023-06-19T05:28:14;6.67;;;5.20;;
15831;SDS011;8016;49.928;9.372;2023-06-19T05:30:40;5.70;;;5.20;;
15831;SDS011;8016;49.928;9.372;2023-06-19T05:33:06;6.63;;;5.18;;
15831;SDS011;8016;49.928;9.372;2023-06-19T05:35:32;5.75;;;5.25;;
15831;SDS011;8016;49.928;9.372;2023-06-19T05:37:58;7.32;;;5.18;;
15831;SDS011;8016;49.928;9.372;2023-06-19T05:40:24;5.22;;;4.82;;
15831;SDS011;8016;49.928;9.372;2023-06-19T05:42:50;5.85;;;5.03;;
15831;SDS011;8016;49.928;9.372;2023-06-19T05:45:16;6.15;;;4.78;;
15831;SDS011;8016;49.928;9.372;2023-06-19T05:47:42;5.72;;;4.95;;
15831;SDS011;8016;49.928;9.372;2023-06-19T05:50:08;5.50;;;4.82;;
15831;SDS011;8016;49.928;9.372;2023-06-19T05:52:34;6.82;;;5.40;;
15831;SDS011;8016;49.928;9.372;2023-06-19T05:55:00;5.13;;;4.65;;
15831;SDS011;8016;49.928;9.372;2023-06-19T05:57:26;5.65;;;5.10;;
15831;SDS011;8016;49.928;9.372;2023-06-19T05:59:52;8.68;;;7.22;;
15831;SDS011;8016;49.928;9.372;2023-06-19T06:02:19;5.03;;;4.53;;
15831;SDS011;8016;49.928;9.372;2023-06-19T06:04:45;5.07;;;4.63;;
15831;SDS011;8016;49.928;9.372;2023-06-19T06:07:11;4.78;;;4.35;;
15831;SDS011;8016;49.928;9.372;2023-06-19T06:09:38;6.35;;;4.78;;
15831;SDS011;8016;49.928;9.372;2023-06-19T06:12:04;5.95;;;4.95;;
15831;SDS011;8016;49.928;9.372;2023-06-19T06:14:30;5.68;;;5.13;;
15831;SDS011;8016;49.928;9.372;2023-06-19T06:16:56;7.22;;;5.00;;
15831;SDS011;8016;49.928;9.372;2023-06-19T06:19:22;7.50;;;5.18;;
15831;SDS011;8016;49.928;9.372;2023-06-19T06:21:49;5.10;;;4.60;;
15831;SDS011;8016;49.928;9.372;2023-06-19T06:24:15;5.40;;;4.63;;
15831;SDS011;8016;49.928;9.372;2023-06-19T06:26:41;5.93;;;4.97;;
15831;SDS011;8016;49.928;9.372;2023-06-19T06:29:07;4.38;;;4.03;;
15831;SDS011;8016;49.928;9.372;2023-06-19T06:31:33;5.20;;;4.70;;
15831;SDS011;8016;49.928;9.372;2023-06-19T06:33:59;5.28;;;4.78;;
15831;SDS011;8016;49.928;9.372;2023-06-19T06:36:25;5.55;;;4.80;;
15831;SDS011;8016;49.928;9.372;2023-06-19T06:38:51;5.88;;;4.35;;
15831;SDS011;8016;49.928;9.372;2023-06-19T06:41:17;4.70;;;4.30;;
15831;SDS011;8016;49.928;9.372;2023-06-19T06:43:43;5.07;;;4.60;;
15831;SDS011;8016;49.928;9.372;2023-06-19T06:46:09;5.07;;;4.57;;
15831;SDS011;8016;49.928;9.372;2023-06-19T06:48:36;5.47;;;4.85;;
15831;SDS011;8016;49.928;9.372;2023-06-19T06:51:02;5.95;;;4.90;;
15831;SDS011;8016;49.928;9.372;2023-06-19T06:53:28;7.47;;;4.60;;
15831;SDS011;8016;49.928;9.372;2023-06-19T06:55:57;9.23;;;4.93;;
15831;SDS011;8016;49.928;9.372;2023-06-19T06:58:23;4.72;;;4.32;;
15831;SDS011;8016;49.928;9.372;2023-06-19T07:00:49;5.95;;;4.65;;
15831;SDS011;8016;49.928;9.372;2023-06-19T07:03:16;5.88;;;4.80;;
15831;SDS011;8016;49.928;9.372;2023-06-19T07:05:42;6.38;;;5.00;;
15831;SDS011;8016;49.928;9.372;2023-06-19T07:08:08;4.97;;;4.57;;
15831;SDS011;8016;49.928;9.372;2023-06-19T07:10:34;5.13;;;4.63;;
15831;SDS011;8016;49.928;9.372;2023-06-19T07:13:00;5.00;;;4.60;;
15831;SDS011;8016;49.928;9.372;2023-06-19T07:15:25;5.18;;;4.65;;
15831;SDS011;8016;49.928;9.372;2023-06-19T07:17:52;7.30;;;4.85;;
15831;SDS011;8016;49.928;9.372;2023-06-19T07:20:18;6.63;;;5.53;;
15831;SDS011;8016;49.928;9.372;2023-06-19T07:22:44;7.68;;;4.72;;
15831;SDS011;8016;49.928;9.372;2023-06-19T07:25:11;5.68;;;4.60;;
15831;SDS011;8016;49.928;9.372;2023-06-19T07:27:37;4.45;;;4.05;;
15831;SDS011;8016;49.928;9.372;2023-06-19T07:30:05;6.53;;;4.55;;
15831;SDS011;8016;49.928;9.372;2023-06-19T07:32:31;8.23;;;5.75;;
15831;SDS011;8016;49.928;9.372;2023-06-19T07:34:57;7.97;;;4.38;;
15831;SDS011;8016;49.928;9.372;2023-06-19T07:37:23;5.38;;;4.47;;
15831;SDS011;8016;49.928;9.372;2023-06-19T07:39:50;5.10;;;4.43;;
15831;SDS011;8016;49.928;9.372;2023-06-19T07:42:17;6.38;;;4.28;;
15831;SDS011;8016;49.928;9.372;2023-06-19T07:44:43;4.50;;;4.10;;
15831;SDS011;8016;49.928;9.372;2023-06-19T07:47:09;4.75;;;4.40;;
15831;SDS011;8016;49.928;9.372;2023-06-19T07:49:35;5.60;;;4.93;;
15831;SDS011;8016;49.928;9.372;2023-06-19T07:52:02;5.35;;;4.60;;
15831;SDS011;8016;49.928;9.372;2023-06-19T07:54:28;8.27;;;4.03;;
15831;SDS011;8016;49.928;9.372;2023-06-19T07:56:54;7.70;;;4.50;;
15831;SDS011;8016;49.928;9.372;2023-06-19T07:59:21;4.55;;;4.15;;
15831;SDS011;8016;49.928;9.372;2023-06-19T08:01:47;4.72;;;4.18;;
15831;SDS011;8016;49.928;9.372;2023-06-19T08:04:13;5.60;;;4.35;;
15831;SDS011;8016;49.928;9.372;2023-06-19T08:06:39;4.25;;;3.85;;
15831;SDS011;8016;49.928;9.372;2023-06-19T08:09:05;5.90;;;3.72;;
15831;SDS011;8016;49.928;9.372;2023-06-19T08:11:31;4.75;;;4.10;;
15831;SDS011;8016;49.928;9.372;2023-06-19T08:13:57;4.55;;;4.15;;
15831;SDS011;8016;49.928;9.372;2023-06-19T08:16:24;4.95;;;4.45;;
15831;SDS011;8016;49.928;9.372;2023-06-19T08:18:50;4.35;;;3.47;;
15831;SDS011;8016;49.928;9.372;2023-06-19T08:21:16;5.35;;;4.40;;
15831;SDS011;8016;49.928;9.372;2023-06-19T08:23:42;6.47;;;4.50;;
15831;SDS011;8016;49.928;9.372;2023-06-19T08:26:09;4.28;;;3.90;;
15831;SDS011;8016;49.928;9.372;2023-06-19T08:28:35;4.90;;;4.40;;
15831;SDS011;8016;49.928;9.372;2023-06-19T08:31:01;4.18;;;3.80;;
15831;SDS011;8016;49.928;9.372;2023-06-19T08:33:27;7.28;;;4.78;;
15831;SDS011;8016;49.928;9.372;2023-06-19T08:35:53;4.22;;;3.80;;
15831;SDS011;8016;49.928;9.372;2023-06-19T08:38:19;4.82;;;4.25;;
15831;SDS011;8016;49.928;9.372;2023-06-19T08:40:45;5.25;;;4.53;;
15831;SDS011;8016;49.928;9.372;2023-06-19T08:43:11;4.70;;;4.30;;
15831;SDS011;8016;49.928;9.372;2023-06-19T08:45:37;5.25;;;4.78;;
15831;SDS011;8016;49.928;9.372;2023-06-19T08:48:03;7.40;;;4.93;;
15831;SDS011;8016;49.928;9.372;2023-06-19T08:50:30;5.00;;;4.57;;
15831;SDS011;8016;49.928;9.372;2023-06-19T08:52:56;5.13;;;4.63;;
15831;SDS011;8016;49.928;9.372;2023-06-19T08:55:22;5.30;;;3.90;;
15831;SDS011;8016;49.928;9.372;2023-06-19T08:57:49;5.03;;;4.50;;
15831;SDS011;8016;49.928;9.372;2023-06-19T09:00:26;5.25;;;4.35;;
15831;SDS011;8016;49.928;9.372;2023-06-19T09:02:58;5.13;;;4.63;;
15831;SDS011;8016;49.928;9.372;2023-06-19T09:05:25;6.60;;;4.40;;
15831;SDS011;8016;49.928;9.372;2023-06-19T09:07:54;6.85;;;4.18;;
15831;SDS011;8016;49.928;9.372;2023-06-19T09:10:21;6.63;;;4.35;;
15831;SDS011;8016;49.928;9.372;2023-06-19T09:12:58;4.82;;;4.32;;
15831;SDS011;8016;49.928;9.372;2023-06-19T09:15:26;4.55;;;4.15;;
15831;SDS011;8016;49.928;9.372;2023-06-19T09:18:06;5.85;;;4.30;;
15831;SDS011;8016;49.928;9.372;2023-06-19T09:20:32;4.88;;;4.35;;
15831;SDS011;8016;49.928;9.372;2023-06-19T09:22:59;6.22;;;4.18;;
15831;SDS011;8016;49.928;9.372;2023-06-19T09:25:25;4.97;;;4.57;;
15831;SDS011;8016;49.928;9.372;2023-06-19T09:27:55;4.70;;;4.30;;
15831;SDS011;8016;49.928;9.372;2023-06-19T09:30:21;6.32;;;4.82;;
15831;SDS011;8016;49.928;9.372;2023-06-19T09:32:47;5.68;;;4.72;;
15831;SDS011;8016;49.928;9.372;2023-06-19T09:35:13;5.22;;;4.78;;
15831;SDS011;8016;49.928;9.372;2023-06-19T09:37:39;5.15;;;4.75;;
15831;SDS011;8016;49.928;9.372;2023-06-19T09:40:06;5.10;;;4.70;;
15831;SDS011;8016;49.928;9.372;2023-06-19T09:42:35;4.60;;;4.20;;
15831;SDS011;8016;49.928;9.372;2023-06-19T09:45:03;4.60;;;4.18;;
15831;SDS011;8016;49.928;9.372;2023-06-19T09:47:35;6.65;;;4.88;;
15831;SDS011;8016;49.928;9.372;2023-06-19T09:50:02;4.85;;;4.45;;
15831;SDS011;8016;49.928;9.372;2023-06-19T09:52:28;6.97;;;4.80;;
15831;SDS011;8016;49.928;9.372;2023-06-19T09:54:55;5.07;;;4.22;;
15831;SDS011;8016;49.928;9.372;2023-06-19T09:57:22;4.72;;;4.32;;
15831;SDS011;8016;49.928;9.372;2023-06-19T09:59:55;4.47;;;3.95;;
15831;SDS011;8016;49.928;9.372;2023-06-19T10:02:22;5.28;;;4.88;;
15831;SDS011;8016;49.928;9.372;2023-06-19T10:04:49;4.88;;;4.50;;
15831;SDS011;8016;49.928;9.372;2023-06-19T10:07:22;4.70;;;4.30;;
15831;SDS011;8016;49.928;9.372;2023-06-19T10:09:55;6.75;;;5.43;;
15831;SDS011;8016;49.928;9.372;2023-06-19T10:12:21;4.82;;;4.43;;
15831;SDS011;8016;49.928;9.372;2023-06-19T10:14:47;5.03;;;4.63;;
15831;SDS011;8016;49.928;9.372;2023-06-19T10:17:16;9.73;;;5.15;;
15831;SDS011;8016;49.928;9.372;2023-06-19T10:19:52;5.13;;;4.63;;
15831;SDS011;8016;49.928;9.372;2023-06-19T10:22:21;4.78;;;4.40;;
15831;SDS011;8016;49.928;9.372;2023-06-19T10:24:50;5.53;;;5.13;;
15831;SDS011;8016;49.928;9.372;2023-06-19T10:27:23;5.55;;;4.93;;
15831;SDS011;8016;49.928;9.372;2023-06-19T10:29:52;5.95;;;5.43;;
15831;SDS011;8016;49.928;9.372;2023-06-19T10:32:19;5.93;;;5.32;;
15831;SDS011;8016;49.928;9.372;2023-06-19T10:34:45;5.75;;;5.25;;
15831;SDS011;8016;49.928;9.372;2023-06-19T10:37:15;5.43;;;5.03;;
15831;SDS011;8016;49.928;9.372;2023-06-19T10:39:41;6.45;;;5.68;;
15831;SDS011;8016;49.928;9.372;2023-06-19T10:42:08;5.93;;;5.32;;
15831;SDS011;8016;49.928;9.372;2023-06-19T10:44:34;6.32;;;5.10;;
15831;SDS011;8016;49.928;9.372;2023-06-19T10:47:01;5.40;;;4.90;;
15831;SDS011;8016;49.928;9.372;2023-06-19T10:49:27;6.40;;;5.80;;
15831;SDS011;8016;49.928;9.372;2023-06-19T10:51:53;7.05;;;5.60;;
15831;SDS011;8016;49.928;9.372;2023-06-19T10:54:24;5.47;;;4.97;;
15831;SDS011;8016;49.928;9.372;2023-06-19T10:56:50;7.30;;;5.38;;
15831;SDS011;8016;49.928;9.372;2023-06-19T10:59:16;5.95;;;5.35;;
15831;SDS011;8016;49.928;9.372;2023-06-19T11:01:46;5.97;;;5.47;;
15831;SDS011;8016;49.928;9.372;2023-06-19T11:04:13;5.75;;;5.25;;
15831;SDS011;8016;49.928;9.372;2023-06-19T11:06:40;5.78;;;5.38;;
15831;SDS011;8016;49.928;9.372;2023-06-19T11:09:06;6.07;;;5.57;;
15831;SDS011;8016;49.928;9.372;2023-06-19T11:14:02;5.93;;;5.40;;
15831;SDS011;8016;49.928;9.372;2023-06-19T11:16:28;5.50;;;5.03;;
15831;SDS011;8016;49.928;9.372;2023-06-19T11:18:57;5.72;;;5.30;;
15831;SDS011;8016;49.928;9.372;2023-06-19T11:21:33;5.68;;;5.18;;
15831;SDS011;8016;49.928;9.372;2023-06-19T11:24:00;5.60;;;5.10;;
15831;SDS011;8016;49.928;9.372;2023-06-19T11:26:26;5.53;;;5.03;;
15831;SDS011;8016;49.928;9.372;2023-06-19T11:28:52;6.53;;;5.40;;
15831;SDS011;8016;49.928;9.372;2023-06-19T11:31:25;7.20;;;5.53;;
15831;SDS011;8016;49.928;9.372;2023-06-19T11:34:00;6.22;;;5.03;;
15831;SDS011;8016;49.928;9.372;2023-06-19T11:36:29;5.97;;;5.47;;
15831;SDS011;8016;49.928;9.372;2023-06-19T11:38:55;6.25;;;5.70;;
15831;SDS011;8016;49.928;9.372;2023-06-19T11:41:28;6.45;;;5.38;;
15831;SDS011;8016;49.928;9.372;2023-06-19T11:44:04;8.95;;;5.55;;
15831;SDS011;8016;49.928;9.372;2023-06-19T11:46:30;6.70;;;5.35;;
15831;SDS011;8016;49.928;9.372;2023-06-19T11:49:12;7.40;;;5.32;;
15831;SDS011;8016;49.928;9.372;2023-06-19T11:51:38;7.22;;;5.45;;
15831;SDS011;8016;49.928;9.372;2023-06-19T11:54:05;9.30;;;5.07;;
15831;SDS011;8016;49.928;9.372;2023-06-19T11:56:31;5.60;;;5.10;;
15831;SDS011;8016;49.928;9.372;2023-06-19T11:58:57;9.38;;;5.50;;
15831;SDS011;8016;49.928;9.372;2023-06-19T12:01:23;8.38;;;6.05;;
15831;SDS011;8016;49.928;9.372;2023-06-19T12:03:50;6.30;;;5.13;;
15831;SDS011;8016;49.928;9.372;2023-06-19T12:06:16;6.80;;;5.40;;
15831;SDS011;8016;49.928;9.372;2023-06-19T12:08:45;7.05;;;5.10;;
15831;SDS011;8016;49.928;9.372;2023-06-19T12:11:11;6.00;;;5.28;;
15831;SDS011;8016;49.928;9.372;2023-06-19T12:13:38;6.75;;;6.15;;
15831;SDS011;8016;49.928;9.372;2023-06-19T12:16:04;5.72;;;5.20;;
15831;SDS011;8016;49.928;9.372;2023-06-19T12:18:30;5.55;;;5.05;;
15831;SDS011;8016;49.928;9.372;2023-06-19T12:20:56;5.78;;;5.30;;
15831;SDS011;8016;49.928;9.372;2023-06-19T12:23:22;8.75;;;5.13;;
15831;SDS011;8016;49.928;9.372;2023-06-19T12:25:48;6.38;;;5.50;;
15831;SDS011;8016;49.928;9.372;2023-06-19T12:28:14;12.82;;;6.45;;
15831;SDS011;8016;49.928;9.372;2023-06-19T12:30:43;28.08;;;8.02;;
15831;SDS011;8016;49.928;9.372;2023-06-19T12:33:09;6.75;;;5.50;;
15831;SDS011;8016;49.928;9.372;2023-06-19T12:35:37;8.13;;;5.88;;
15831;SDS011;8016;49.928;9.372;2023-06-19T12:38:04;6.20;;;5.00;;
15831;SDS011;8016;49.928;9.372;2023-06-19T12:40:30;6.07;;;5.30;;
15831;SDS011;8016;49.928;9.372;2023-06-19T12:42:56;4.93;;;4.53;;
15831;SDS011;8016;49.928;9.372;2023-06-19T12:45:21;5.95;;;5.45;;
15831;SDS011;8016;49.928;9.372;2023-06-19T12:47:47;10.88;;;5.43;;
15831;SDS011;8016;49.928;9.372;2023-06-19T12:50:14;14.50;;;6.72;;
15831;SDS011;8016;49.928;9.372;2023-06-19T12:52:39;8.23;;;5.32;;
15831;SDS011;8016;49.928;9.372;2023-06-19T12:55:05;7.80;;;4.60;;
15831;SDS011;8016;49.928;9.372;2023-06-19T12:57:32;5.95;;;5.40;;
15831;SDS011;8016;49.928;9.372;2023-06-19T12:59:58;5.28;;;4.85;;
15831;SDS011;8016;49.928;9.372;2023-06-19T13:02:24;4.20;;;3.90;;
15831;SDS011;8016;49.928;9.372;2023-06-19T13:04:50;4.32;;;3.92;;
15831;SDS011;8016;49.928;9.372;2023-06-19T13:07:16;5.10;;;4.25;;
15831;SDS011;8016;49.928;9.372;2023-06-19T13:09:41;4.32;;;4.03;;
15831;SDS011;8016;49.928;9.372;2023-06-19T13:12:08;4.72;;;4.32;;
15831;SDS011;8016;49.928;9.372;2023-06-19T13:14:34;5.53;;;4.40;;
15831;SDS011;8016;49.928;9.372;2023-06-19T13:17:00;8.02;;;5.15;;
15831;SDS011;8016;49.928;9.372;2023-06-19T13:19:26;5.22;;;4.70;;
15831;SDS011;8016;49.928;9.372;2023-06-19T13:21:52;6.05;;;5.20;;
15831;SDS011;8016;49.928;9.372;2023-06-19T13:24:18;5.68;;;5.10;;
15831;SDS011;8016;49.928;9.372;2023-06-19T13:26:44;4.90;;;4.50;;
15831;SDS011;8016;49.928;9.372;2023-06-19T13:29:11;5.40;;;4.93;;
15831;SDS011;8016;49.928;9.372;2023-06-19T13:31:37;5.47;;;4.97;;
15831;SDS011;8016;49.928;9.372;2023-06-19T13:34:03;5.00;;;4.35;;
15831;SDS011;8016;49.928;9.372;2023-06-19T13:36:29;5.57;;;5.18;;
15831;SDS011;8016;49.928;9.372;2023-06-19T13:38:56;7.90;;;4.70;;
15831;SDS011;8016;49.928;9.372;2023-06-19T13:41:22;5.55;;;5.00;;
15831;SDS011;8016;49.928;9.372;2023-06-19T13:43:48;4.60;;;4.30;;
15831;SDS011;8016;49.928;9.372;2023-06-19T13:46:14;6.75;;;4.32;;
15831;SDS011;8016;49.928;9.372;2023-06-19T13:48:40;4.75;;;4.32;;
15831;SDS011;8016;49.928;9.372;2023-06-19T13:51:06;8.43;;;4.30;;
15831;SDS011;8016;49.928;9.372;2023-06-19T13:53:32;5.45;;;4.32;;
15831;SDS011;8016;49.928;9.372;2023-06-19T13:55:58;8.38;;;4.93;;
15831;SDS011;8016;49.928;9.372;2023-06-19T13:58:24;5.38;;;4.88;;
15831;SDS011;8016;49.928;9.372;2023-06-19T14:00:50;5.32;;;4.80;;
15831;SDS011;8016;49.928;9.372;2023-06-19T14:03:17;8.32;;;6.35;;
15831;SDS011;8016;49.928;9.372;2023-06-19T14:05:43;6.57;;;5.75;;
15831;SDS011;8016;49.928;9.372;2023-06-19T14:08:09;5.90;;;5.40;;
15831;SDS011;8016;49.928;9.372;2023-06-19T14:10:35;5.60;;;5.10;;
15831;SDS011;8016;49.928;9.372;2023-06-19T14:13:01;5.40;;;4.95;;
15831;SDS011;8016;49.928;9.372;2023-06-19T14:15:27;5.43;;;4.93;;
15831;SDS011;8016;49.928;9.372;2023-06-19T14:17:53;5.53;;;4.60;;
15831;SDS011;8016;49.928;9.372;2023-06-19T14:20:19;5.80;;;4.38;;
15831;SDS011;8016;49.928;9.372;2023-06-19T14:22:45;4.97;;;4.47;;
15831;SDS011;8016;49.928;9.372;2023-06-19T14:25:11;5.57;;;4.60;;
15831;SDS011;8016;49.928;9.372;2023-06-19T14:27:37;6.00;;;5.45;;
15831;SDS011;8016;49.928;9.372;2023-06-19T14:30:04;6.93;;;4.95;;
15831;SDS011;8016;49.928;9.372;2023-06-19T14:32:30;5.05;;;4.63;;
15831;SDS011;8016;49.928;9.372;2023-06-19T14:34:56;7.57;;;4.80;;
15831;SDS011;8016;49.928;9.372;2023-06-19T14:37:22;6.45;;;5.00;;
15831;SDS011;8016;49.928;9.372;2023-06-19T14:39:48;5.53;;;4.72;;
15831;SDS011;8016;49.928;9.372;2023-06-19T14:42:14;4.75;;;4.35;;
15831;SDS011;8016;49.928;9.372;2023-06-19T14:44:40;6.38;;;5.05;;
15831;SDS011;8016;49.928;9.372;2023-06-19T14:47:05;5.57;;;5.18;;
15831;SDS011;8016;49.928;9.372;2023-06-19T14:49:32;5.97;;;5.00;;
15831;SDS011;8016;49.928;9.372;2023-06-19T14:51:58;5.45;;;5.03;;
15831;SDS011;8016;49.928;9.372;2023-06-19T14:54:24;8.40;;;5.50;;
15831;SDS011;8016;49.928;9.372;2023-06-19T14:56:50;5.20;;;4.80;;
15831;SDS011;8016;49.928;9.372;2023-06-19T14:59:16;7.15;;;5.45;;
15831;SDS011;8016;49.928;9.372;2023-06-19T15:01:44;6.32;;;5.15;;